KSDY/SDY METAR and TAF weather

Enter ICAO airport designator
Station Type Date Time Source
KSDY METAR 2021/01/27 12:56 UTC NOAA

KSDY 271256Z AUTO 11009KT 10SM OVC010 M13/M16 A3017 RMK AO2 SNE17 SLP269 P0000 T11331161 FZRANO


Station Type Date Time Source
KSDY Decoded METAR 2021/01/27 12:56 UTC NOAA

Sidney-Richland, MT, United States (KSDY) 47-42N 104-12W
Jan 27, 2021 - 07:56 AM EST / 2021.01.27 1256 UTC
Wind: from the ESE (110 degrees) at 10 MPH (9 KT):0
Visibility: 10 mile(s):0
Sky conditions: overcast
Precipitation last hour: A trace
Temperature: 8.1 F (-13.3 C)
Windchill: -5 F (-21 C):2
Dew Point: 3.0 F (-16.1 C)
Relative Humidity: 79%
Pressure (altimeter): 30.17 in. Hg (1021 hPa)
ob: KSDY 271256Z AUTO 11009KT 10SM OVC010 M13/M16 A3017 RMK AO2 SNE17 SLP269 P0000 T11331161 FZRANO
cycle: 13

Station Type Date Time Source
KSDY TAF 2021/01/27 12:30 UTC NOAA

TAF KSDY 271126Z 2712/2812 04006KT P6SM OVC011
FM271500 09010KT P6SM BKN009
FM271700 13015KT P6SM BKN010
FM272000 13014KT P6SM SCT018
FM280200 10006KT P6SM SCT080

Example: see airport list